createdAt,value
2023-04-06T00:00:16.828Z,8.74
2023-04-06T00:02:18.623Z,8.74
2023-04-06T00:04:20.337Z,8.88
2023-04-06T00:06:23.507Z,8.73
2023-04-06T00:08:25.382Z,8.76
2023-04-06T00:10:27.166Z,8.76
2023-04-06T00:12:28.933Z,8.85
2023-04-06T00:14:30.712Z,8.96
2023-04-06T00:16:35.173Z,9.00
2023-04-06T00:18:36.887Z,9.14
2023-04-06T00:20:38.820Z,9.00
2023-04-06T00:22:42.156Z,8.96
2023-04-06T00:24:43.894Z,9.08
2023-04-06T00:26:45.557Z,9.07
2023-04-06T00:28:47.214Z,9.13
2023-04-06T00:30:48.960Z,9.08
2023-04-06T00:32:51.319Z,9.04
2023-04-06T00:34:52.928Z,9.16
2023-04-06T00:36:54.635Z,9.13
2023-04-06T00:38:57.884Z,9.18
2023-04-06T00:40:59.606Z,9.02
2023-04-06T00:43:01.419Z,8.91
2023-04-06T00:45:03.517Z,8.80
2023-04-06T00:47:05.168Z,8.91
2023-04-06T00:49:07.086Z,8.85
2023-04-06T00:51:08.891Z,8.82
2023-04-06T00:53:10.543Z,8.73
2023-04-06T00:55:13.577Z,8.70
2023-04-06T00:57:15.600Z,8.82
2023-04-06T00:59:17.374Z,8.75
2023-04-06T01:01:19.292Z,8.57
2023-04-06T01:03:20.965Z,8.42
2023-04-06T01:05:22.682Z,8.34
2023-04-06T01:07:24.675Z,8.41
2023-04-06T01:09:28.819Z,8.44
2023-04-06T01:11:31.857Z,8.48
2023-04-06T01:13:33.536Z,8.54
2023-04-06T01:15:36.877Z,8.55
2023-04-06T01:17:38.552Z,8.42
2023-04-06T01:19:40.477Z,8.32
2023-04-06T01:21:42.768Z,8.27
2023-04-06T01:23:46.214Z,8.23
2023-04-06T01:25:47.959Z,8.24
2023-04-06T01:27:49.679Z,8.25
2023-04-06T01:29:51.499Z,8.26
2023-04-06T01:31:53.219Z,8.08
2023-04-06T01:33:55.506Z,7.99
2023-04-06T01:35:57.205Z,8.02
2023-04-06T01:37:58.933Z,8.01
2023-04-06T01:40:02.054Z,8.05
2023-04-06T01:42:04.036Z,8.23
2023-04-06T01:44:05.909Z,8.26
2023-04-06T01:46:07.656Z,8.38
2023-04-06T01:48:09.384Z,8.42
2023-04-06T01:50:11.051Z,8.29
2023-04-06T01:52:12.640Z,8.46
2023-04-06T01:54:14.329Z,8.47
2023-04-06T01:56:17.347Z,8.44
2023-04-06T01:58:18.906Z,8.42
2023-04-06T02:00:20.540Z,8.43
2023-04-06T02:02:22.223Z,8.42
2023-04-06T02:04:23.968Z,8.37
2023-04-06T02:06:25.542Z,8.45
2023-04-06T02:08:27.220Z,8.45
2023-04-06T02:10:28.944Z,8.46
2023-04-06T02:12:31.897Z,8.41
2023-04-06T02:14:33.834Z,8.26
2023-04-06T02:16:35.501Z,8.25
2023-04-06T02:18:37.129Z,8.12
2023-04-06T02:20:38.779Z,8.00
2023-04-06T02:22:40.653Z,7.92
2023-04-06T02:24:42.281Z,7.84
2023-04-06T02:26:44.002Z,7.75
2023-04-06T02:28:47.057Z,7.66
2023-04-06T02:30:48.659Z,7.55
2023-04-06T02:32:50.362Z,7.44
2023-04-06T02:34:52.190Z,7.38
2023-04-06T02:36:53.794Z,7.38
2023-04-06T02:38:55.646Z,7.35
2023-04-06T02:40:57.225Z,7.25
2023-04-06T02:42:58.884Z,7.16
2023-04-06T02:45:02.065Z,7.15
2023-04-06T02:47:03.643Z,7.00
2023-04-06T02:49:05.319Z,6.94
2023-04-06T02:51:06.992Z,7.05
2023-04-06T02:53:08.601Z,7.01
2023-04-06T02:55:10.261Z,6.95
2023-04-06T02:57:11.986Z,6.93
2023-04-06T02:59:13.632Z,7.05
2023-04-06T03:01:16.727Z,7.07
2023-04-06T03:03:18.474Z,7.20
2023-04-06T03:05:20.174Z,7.30
2023-04-06T03:07:24.919Z,7.35
2023-04-06T03:09:26.641Z,7.32
2023-04-06T03:11:28.179Z,7.32
2023-04-06T03:13:29.991Z,7.36
2023-04-06T03:15:31.660Z,7.41
2023-04-06T03:17:34.785Z,7.40
2023-04-06T03:19:36.415Z,7.48
2023-04-06T03:21:38.076Z,7.47
2023-04-06T03:23:39.693Z,7.63
2023-04-06T03:25:41.296Z,7.50
2023-04-06T03:27:43.191Z,7.49
2023-04-06T03:29:44.749Z,7.47
2023-04-06T03:31:46.359Z,7.49
2023-04-06T03:33:49.750Z,7.52
2023-04-06T03:35:51.531Z,7.46
2023-04-06T03:37:55.785Z,7.57
2023-04-06T03:39:57.730Z,7.55
2023-04-06T03:41:59.402Z,7.31
2023-04-06T03:44:01.024Z,7.45
2023-04-06T03:46:02.959Z,7.31
2023-04-06T03:48:04.964Z,7.34
2023-04-06T03:50:10.055Z,7.30
2023-04-06T03:52:11.721Z,7.20
2023-04-06T03:54:13.391Z,7.21
2023-04-06T03:56:14.974Z,7.30
2023-04-06T03:58:16.841Z,7.33
2023-04-06T04:00:18.709Z,7.22
2023-04-06T04:02:20.470Z,7.17
2023-04-06T04:04:22.362Z,7.14
2023-04-06T04:06:25.330Z,7.05
2023-04-06T04:08:26.926Z,7.26
2023-04-06T04:10:28.650Z,7.26
2023-04-06T04:12:30.556Z,7.24
2023-04-06T04:14:32.274Z,7.26
2023-04-06T04:16:33.935Z,7.17
2023-04-06T04:18:35.584Z,7.13
2023-04-06T04:20:37.237Z,7.06
2023-04-06T04:22:40.391Z,7.11
2023-04-06T04:24:41.978Z,7.20
2023-04-06T04:26:43.651Z,7.22
2023-04-06T04:28:45.293Z,7.22
2023-04-06T04:30:47.305Z,7.16
2023-04-06T04:32:49.023Z,7.03
2023-04-06T04:34:52.020Z,6.92
2023-04-06T04:36:53.705Z,6.89
2023-04-06T04:38:56.731Z,6.77
2023-04-06T04:40:58.385Z,6.82
2023-04-06T04:43:00.022Z,7.00
2023-04-06T04:45:01.678Z,7.01
2023-04-06T04:47:03.273Z,6.88
2023-04-06T04:49:04.935Z,6.84
2023-04-06T04:51:06.656Z,6.80
2023-04-06T04:53:08.285Z,6.72
2023-04-06T04:55:14.197Z,6.64
2023-04-06T04:57:15.803Z,6.58
2023-04-06T04:59:17.527Z,6.56
2023-04-06T05:01:19.292Z,6.56
2023-04-06T05:03:24.106Z,6.52
2023-04-06T05:05:25.908Z,6.47
2023-04-06T05:07:27.770Z,6.52
2023-04-06T05:09:30.518Z,6.50
2023-04-06T05:11:33.864Z,6.46
2023-04-06T05:13:35.549Z,6.44
2023-04-06T05:15:37.580Z,6.41
2023-04-06T05:17:39.331Z,6.43
2023-04-06T05:19:41.463Z,6.44
2023-04-06T05:21:43.152Z,6.45
2023-04-06T05:23:44.858Z,6.50
2023-04-06T05:25:46.499Z,6.50
2023-04-06T05:27:49.554Z,6.58
2023-04-06T05:29:51.230Z,6.57
2023-04-06T05:31:52.882Z,6.53
2023-04-06T05:33:54.649Z,6.48
2023-04-06T05:35:56.359Z,6.48
2023-04-06T05:37:58.151Z,6.43
2023-04-06T05:39:59.832Z,6.40
2023-04-06T05:42:05.027Z,6.39
2023-04-06T05:44:07.949Z,6.37
2023-04-06T05:46:09.752Z,6.35
2023-04-06T05:48:11.432Z,6.38
2023-04-06T05:50:13.450Z,6.41
2023-04-06T05:52:15.089Z,6.47
2023-04-06T05:54:16.743Z,6.56
2023-04-06T05:56:33.213Z,6.57
2023-04-06T05:58:34.866Z,6.60
2023-04-06T06:00:37.917Z,6.59
2023-04-06T06:02:39.803Z,6.73
2023-04-06T06:04:41.483Z,6.79
2023-04-06T06:06:43.079Z,6.94
2023-04-06T06:08:44.736Z,7.03
2023-04-06T06:10:46.340Z,6.97
2023-04-06T06:12:48.054Z,6.88
2023-04-06T06:14:49.646Z,6.91
2023-04-06T06:16:52.632Z,7.05
2023-04-06T06:18:54.298Z,7.15
2023-04-06T06:20:55.900Z,7.26
2023-04-06T06:22:57.568Z,7.28
2023-04-06T06:24:59.268Z,7.26
2023-04-06T06:27:01.136Z,7.28
2023-04-06T06:29:02.805Z,7.32
2023-04-06T06:31:04.672Z,7.38
2023-04-06T06:33:07.635Z,7.55
2023-04-06T06:35:09.679Z,7.70
2023-04-06T06:37:11.468Z,7.86
2023-04-06T06:39:13.052Z,7.92
2023-04-06T06:41:15.390Z,8.06
2023-04-06T06:43:17.163Z,8.06
2023-04-06T06:45:18.816Z,8.18
2023-04-06T06:47:20.438Z,8.26
2023-04-06T06:49:23.585Z,8.32
2023-04-06T06:51:25.233Z,8.28
2023-04-06T06:53:26.948Z,8.34
2023-04-06T06:55:28.511Z,8.45
2023-04-06T06:57:30.220Z,8.60
2023-04-06T06:59:31.870Z,8.76
2023-04-06T07:01:34.179Z,8.88
2023-04-06T07:03:35.854Z,8.99
2023-04-06T07:05:41.341Z,9.11
2023-04-06T07:07:43.233Z,9.24
2023-04-06T07:09:44.931Z,9.34
2023-04-06T07:11:46.586Z,9.40
2023-04-06T07:13:48.369Z,9.50
2023-04-06T07:15:50.328Z,9.59
2023-04-06T07:17:51.954Z,9.71
2023-04-06T07:19:53.838Z,9.84
2023-04-06T07:21:56.885Z,9.92
2023-04-06T07:23:58.558Z,10.00
2023-04-06T07:26:00.208Z,10.05
2023-04-06T07:28:02.650Z,10.12
2023-04-06T07:30:04.864Z,10.21
2023-04-06T07:32:06.723Z,10.34
2023-04-06T07:34:08.539Z,10.39
2023-04-06T07:36:10.305Z,10.52
2023-04-06T07:38:13.590Z,10.69
2023-04-06T07:40:15.512Z,10.77
2023-04-06T07:42:17.186Z,10.77
2023-04-06T07:44:18.897Z,10.75
2023-04-06T07:46:20.544Z,10.75
2023-04-06T07:48:22.140Z,10.80
2023-04-06T07:50:23.883Z,10.89
2023-04-06T07:52:25.617Z,11.02
2023-04-06T07:54:28.664Z,11.00
2023-04-06T07:56:30.347Z,11.10
2023-04-06T07:58:31.964Z,11.23
2023-04-06T08:00:33.751Z,11.37
2023-04-06T08:02:35.482Z,11.47
2023-04-06T08:04:37.566Z,11.57
2023-04-06T08:06:39.277Z,11.68
2023-04-06T08:08:40.959Z,11.72
2023-04-06T08:10:43.965Z,11.82
2023-04-06T08:12:45.607Z,11.84
2023-04-06T08:14:47.309Z,11.75
2023-04-06T08:16:49.175Z,11.93
2023-04-06T08:18:50.773Z,12.11
2023-04-06T08:20:55.668Z,12.06
2023-04-06T08:22:57.394Z,12.15
2023-04-06T08:24:59.244Z,12.28
2023-04-06T08:27:02.409Z,12.40
2023-04-06T08:29:04.592Z,12.45
2023-04-06T08:31:06.827Z,12.51
2023-04-06T08:33:08.627Z,12.56
2023-04-06T08:35:10.242Z,12.41
2023-04-06T08:37:11.979Z,12.40
2023-04-06T08:39:13.707Z,12.51
2023-04-06T08:41:15.240Z,12.52
2023-04-06T08:43:21.312Z,12.59
2023-04-06T08:45:23.163Z,12.53
2023-04-06T08:47:25.214Z,12.57
2023-04-06T08:49:28.283Z,12.51
2023-04-06T08:51:30.886Z,12.56
2023-04-06T08:53:32.675Z,12.45
2023-04-06T08:55:35.550Z,12.29
2023-04-06T08:57:37.605Z,12.39
2023-04-06T08:59:40.992Z,12.42
2023-04-06T09:01:45.513Z,12.27
2023-04-06T09:03:49.574Z,12.44
2023-04-06T09:05:51.529Z,12.63
2023-04-06T09:07:53.626Z,12.65
2023-04-06T09:09:55.283Z,12.71
2023-04-06T09:11:56.960Z,12.70
2023-04-06T09:13:58.769Z,12.72
2023-04-06T09:16:02.869Z,12.68
2023-04-06T09:18:04.653Z,12.77
2023-04-06T09:20:07.198Z,12.83
2023-04-06T09:22:08.945Z,12.83
2023-04-06T09:24:11.079Z,12.76
2023-04-06T09:26:15.013Z,12.62
2023-04-06T09:28:18.996Z,12.68
2023-04-06T09:30:20.661Z,12.79
2023-04-06T09:32:23.710Z,12.97
2023-04-06T09:34:25.346Z,13.04
2023-04-06T09:36:33.665Z,13.05
2023-04-06T09:38:35.342Z,13.07
2023-04-06T09:40:37.765Z,13.23
2023-04-06T09:42:42.849Z,13.38
2023-04-06T09:44:44.487Z,13.38
2023-04-06T09:46:59.556Z,13.40
2023-04-06T09:49:05.175Z,13.39
2023-04-06T09:51:07.878Z,13.39
2023-04-06T09:53:10.276Z,13.45
2023-04-06T09:55:17.533Z,13.54
2023-04-06T09:57:25.906Z,13.62
2023-04-06T09:59:43.801Z,13.82
2023-04-06T10:01:49.556Z,13.84
2023-04-06T10:04:03.407Z,13.77
2023-04-06T10:06:11.574Z,13.86
2023-04-06T10:08:14.906Z,13.93
2023-04-06T10:10:16.960Z,14.04
2023-04-06T10:12:18.775Z,14.09
2023-04-06T10:14:20.577Z,14.10
2023-04-06T10:16:23.257Z,14.15
2023-04-06T10:18:25.324Z,14.18
2023-04-06T10:20:32.500Z,14.32
2023-04-06T10:22:42.358Z,14.35
2023-04-06T10:24:44.135Z,14.41
2023-04-06T10:26:58.050Z,14.44
2023-04-06T10:29:04.420Z,14.39
2023-04-06T10:31:07.089Z,14.61
2023-04-06T10:33:16.587Z,14.75
2023-04-06T10:35:18.254Z,14.80
2023-04-06T10:37:20.043Z,14.87
2023-04-06T10:39:26.636Z,14.99
2023-04-06T10:41:36.367Z,15.15
2023-04-06T10:43:39.186Z,15.11
2023-04-06T10:45:41.605Z,15.16
2023-04-06T10:47:43.258Z,15.16
2023-04-06T10:49:45.108Z,15.46
2023-04-06T10:51:52.541Z,15.67
2023-04-06T10:53:55.452Z,15.86
2023-04-06T10:55:59.149Z,15.86
2023-04-06T10:58:01.079Z,15.89
2023-04-06T11:00:02.803Z,16.12
2023-04-06T11:02:04.607Z,16.24
2023-04-06T11:04:06.329Z,16.28
2023-04-06T11:06:07.993Z,16.34
2023-04-06T11:08:09.636Z,16.61
2023-04-06T11:10:16.873Z,16.74
2023-04-06T11:12:26.763Z,16.83
2023-04-06T11:14:28.452Z,16.80
2023-04-06T11:16:31.804Z,16.72
2023-04-06T11:18:33.494Z,16.72
2023-04-06T11:20:35.156Z,16.76
2023-04-06T11:22:36.838Z,16.76
2023-04-06T11:24:38.533Z,16.93
2023-04-06T11:26:42.431Z,17.02
2023-04-06T11:28:45.562Z,17.05
2023-04-06T11:30:47.908Z,16.76
2023-04-06T11:32:49.833Z,16.67
2023-04-06T11:34:51.658Z,16.68
2023-04-06T11:36:56.649Z,16.83
2023-04-06T11:38:58.251Z,16.84
2023-04-06T11:40:59.893Z,16.59
2023-04-06T11:43:01.796Z,16.53
2023-04-06T11:45:08.113Z,16.64
2023-04-06T11:47:11.747Z,17.15
2023-04-06T11:49:16.988Z,17.19
2023-04-06T11:51:23.710Z,17.17
2023-04-06T11:53:25.530Z,17.08
2023-04-06T11:55:27.159Z,17.08
2023-04-06T11:57:30.297Z,17.26
2023-04-06T11:59:32.202Z,17.29
2023-04-06T12:01:39.247Z,17.64
2023-04-06T12:03:41.224Z,17.80
2023-04-06T12:05:42.912Z,18.00
2023-04-06T12:07:44.554Z,17.89
2023-04-06T12:09:46.205Z,18.08
2023-04-06T12:11:47.828Z,18.24
2023-04-06T12:13:49.503Z,18.07
2023-04-06T12:15:51.200Z,18.14
2023-04-06T12:17:54.256Z,18.00
2023-04-06T12:19:57.202Z,17.83
2023-04-06T12:22:03.386Z,17.74
2023-04-06T12:24:05.566Z,17.65
2023-04-06T12:26:07.152Z,17.32
2023-04-06T12:28:15.144Z,17.41
2023-04-06T12:30:17.240Z,17.58
2023-04-06T12:32:19.268Z,17.76
2023-04-06T12:34:22.164Z,17.89
2023-04-06T12:36:23.785Z,17.93
2023-04-06T12:38:25.394Z,17.86
2023-04-06T12:40:26.935Z,17.86
2023-04-06T12:42:28.553Z,17.75
2023-04-06T12:44:30.267Z,17.70
2023-04-06T12:46:31.989Z,17.78
2023-04-06T12:48:33.758Z,17.85
2023-04-06T12:50:36.754Z,17.83
2023-04-06T12:52:38.350Z,17.79
2023-04-06T12:54:39.933Z,17.87
2023-04-06T12:56:42.794Z,17.79
2023-04-06T12:58:44.587Z,17.53
2023-04-06T13:00:46.426Z,17.52
2023-04-06T13:02:48.573Z,17.52
2023-04-06T13:04:50.585Z,17.48
2023-04-06T13:06:53.580Z,17.33
2023-04-06T13:09:02.124Z,17.38
2023-04-06T13:11:03.952Z,17.40
2023-04-06T13:13:05.590Z,17.49
2023-04-06T13:15:08.079Z,17.49
2023-04-06T13:17:09.810Z,17.54
2023-04-06T13:19:11.440Z,17.57
2023-04-06T13:21:14.954Z,17.54
2023-04-06T13:23:17.953Z,17.47
2023-04-06T13:25:19.589Z,17.51
2023-04-06T13:27:21.251Z,17.48
2023-04-06T13:29:28.575Z,17.46
2023-04-06T13:31:30.393Z,17.33
2023-04-06T13:33:32.311Z,17.30
2023-04-06T13:35:33.970Z,17.25
2023-04-06T13:37:36.163Z,17.13
2023-04-06T13:39:39.248Z,17.23
2023-04-06T13:41:40.930Z,17.22
2023-04-06T13:43:42.568Z,17.24
2023-04-06T13:45:50.248Z,17.27
2023-04-06T13:47:52.055Z,17.35
2023-04-06T13:49:55.912Z,17.37
2023-04-06T13:51:57.634Z,17.32
2023-04-06T13:53:59.298Z,17.31
2023-04-06T13:56:02.310Z,17.33
2023-04-06T13:58:03.921Z,17.38
2023-04-06T14:00:08.177Z,17.40
2023-04-06T14:02:11.709Z,17.38
2023-04-06T14:04:13.635Z,17.27
2023-04-06T14:08:20.434Z,17.39
2023-04-06T14:10:22.075Z,17.57
2023-04-06T14:12:25.144Z,17.73
2023-04-06T14:14:27.091Z,17.83
2023-04-06T14:16:28.621Z,17.87
2023-04-06T14:18:30.424Z,17.97
2023-04-06T14:20:33.350Z,17.98
2023-04-06T14:22:35.155Z,17.99
2023-04-06T14:24:36.966Z,18.01
2023-04-06T14:26:39.696Z,17.94
2023-04-06T14:28:43.365Z,17.90
2023-04-06T14:30:45.092Z,17.76
2023-04-06T14:32:46.831Z,17.79
2023-04-06T14:34:48.423Z,17.74
2023-04-06T14:36:49.985Z,17.63
2023-04-06T14:38:51.521Z,17.61
2023-04-06T14:40:53.137Z,17.56
2023-04-06T14:42:54.811Z,17.47
2023-04-06T14:44:58.006Z,17.45
2023-04-06T14:46:59.577Z,17.37
2023-04-06T14:49:01.199Z,17.25
2023-04-06T14:51:02.850Z,17.26
2023-04-06T14:53:04.465Z,17.22
2023-04-06T14:55:06.490Z,17.22
2023-04-06T14:57:08.049Z,17.19
2023-04-06T14:59:09.569Z,17.06
2023-04-06T15:01:12.535Z,16.95
2023-04-06T15:03:14.578Z,16.86
2023-04-06T15:05:16.508Z,16.85
2023-04-06T15:07:18.081Z,16.78
2023-04-06T15:09:19.573Z,16.80
2023-04-06T15:11:21.160Z,16.73
2023-04-06T15:13:22.842Z,16.76
2023-04-06T15:15:24.388Z,16.70
2023-04-06T15:17:27.492Z,16.61
2023-04-06T15:19:29.180Z,16.63
2023-04-06T15:21:30.858Z,16.60
2023-04-06T15:23:32.592Z,16.60
2023-04-06T15:25:34.144Z,16.55
2023-04-06T15:27:35.704Z,16.56
2023-04-06T15:29:37.439Z,16.57
2023-04-06T15:31:39.040Z,16.57
2023-04-06T15:33:44.215Z,16.48
2023-04-06T15:35:49.133Z,16.57
2023-04-06T15:37:50.676Z,16.58
2023-04-06T15:39:52.292Z,16.55
2023-04-06T15:41:53.907Z,16.56
2023-04-06T15:43:55.819Z,16.48
2023-04-06T15:45:57.376Z,16.53
2023-04-06T15:47:58.974Z,16.57
2023-04-06T15:50:02.036Z,16.61
2023-04-06T15:52:03.697Z,16.50
2023-04-06T15:54:05.414Z,16.53
2023-04-06T15:56:07.561Z,16.52
2023-04-06T15:58:09.110Z,16.53
2023-04-06T16:00:11.916Z,16.52
2023-04-06T16:02:13.621Z,16.57
2023-04-06T16:04:15.408Z,16.56
2023-04-06T16:06:18.391Z,16.61
2023-04-06T16:08:20.254Z,16.61
2023-04-06T16:10:21.819Z,16.56
2023-04-06T16:12:23.448Z,16.55
2023-04-06T16:14:25.002Z,16.49
2023-04-06T16:16:26.770Z,16.54
2023-04-06T16:18:28.355Z,16.60
2023-04-06T16:20:30.400Z,16.60
2023-04-06T16:22:33.296Z,16.52
2023-04-06T16:24:35.079Z,16.54
2023-04-06T16:26:36.646Z,16.55
2023-04-06T16:28:38.200Z,16.52
2023-04-06T16:30:41.066Z,16.50
2023-04-06T16:32:44.133Z,16.39
2023-04-06T16:34:45.701Z,16.43
2023-04-06T16:36:47.248Z,16.43
2023-04-06T16:38:50.212Z,16.46
2023-04-06T16:40:59.995Z,16.46
2023-04-06T16:43:01.562Z,16.43
2023-04-06T16:45:03.535Z,16.34
2023-04-06T16:47:05.179Z,16.13
2023-04-06T16:49:06.782Z,16.06
2023-04-06T16:51:08.882Z,16.05
2023-04-06T16:53:10.425Z,16.08
2023-04-06T16:55:13.656Z,16.13
2023-04-06T16:57:15.670Z,16.20
2023-04-06T16:59:17.462Z,15.96
2023-04-06T17:01:19.531Z,15.95
2023-04-06T17:03:21.288Z,15.96
2023-04-06T17:05:23.129Z,15.96
2023-04-06T17:07:24.720Z,15.97
2023-04-06T17:09:26.293Z,15.97
2023-04-06T17:11:48.905Z,15.95
2023-04-06T17:13:50.614Z,15.83
2023-04-06T17:15:52.158Z,15.82
2023-04-06T17:17:53.777Z,15.86
2023-04-06T17:19:55.508Z,15.89
2023-04-06T17:21:57.098Z,15.98
2023-04-06T17:23:58.800Z,15.97
2023-04-06T17:26:03.984Z,15.88
2023-04-06T17:28:08.182Z,15.92
2023-04-06T17:30:10.844Z,15.91
2023-04-06T17:32:12.366Z,15.88
2023-04-06T17:34:13.920Z,15.87
2023-04-06T17:36:15.572Z,15.84
2023-04-06T17:38:17.226Z,15.81
2023-04-06T17:40:19.324Z,15.77
2023-04-06T17:44:24.222Z,15.60
2023-04-06T17:46:25.957Z,15.54
2023-04-06T17:48:27.572Z,15.52
2023-04-06T17:50:29.196Z,15.44
2023-04-06T17:52:30.775Z,15.45
2023-04-06T17:54:34.035Z,15.42
2023-04-06T17:56:35.585Z,15.47
2023-04-06T17:58:37.260Z,15.46
2023-04-06T18:00:40.220Z,15.47
2023-04-06T18:02:41.810Z,15.43
2023-04-06T18:04:43.600Z,15.50
2023-04-06T18:06:45.290Z,15.39
2023-04-06T18:08:46.880Z,15.26
2023-04-06T18:10:48.502Z,15.13
2023-04-06T18:12:50.041Z,15.13
2023-04-06T18:14:51.601Z,14.96
2023-04-06T18:16:54.553Z,14.95
2023-04-06T18:18:56.247Z,14.80
2023-04-06T18:20:57.904Z,14.80
2023-04-06T18:22:59.485Z,14.69
2023-04-06T18:25:01.070Z,14.77
2023-04-06T18:27:02.773Z,14.83
2023-04-06T18:29:04.479Z,14.81
2023-04-06T18:31:06.110Z,14.82
2023-04-06T18:33:09.075Z,14.85
2023-04-06T18:35:10.731Z,14.84
2023-04-06T18:37:14.968Z,14.77
2023-04-06T18:39:16.539Z,14.77
2023-04-06T18:41:18.211Z,14.79
2023-04-06T18:43:20.048Z,14.84
2023-04-06T18:45:21.732Z,14.81
2023-04-06T18:47:23.467Z,14.79
2023-04-06T18:49:26.572Z,14.82
2023-04-06T18:51:28.912Z,14.80
2023-04-06T18:53:30.517Z,14.83
2023-04-06T18:55:32.212Z,14.79
2023-04-06T18:57:34.032Z,14.85
2023-04-06T18:59:35.605Z,14.80
2023-04-06T19:01:37.289Z,14.76
2023-04-06T19:03:41.460Z,14.66
2023-04-06T19:05:44.767Z,14.63
2023-04-06T19:07:46.407Z,14.58
2023-04-06T19:09:47.973Z,14.55
2023-04-06T19:11:49.705Z,14.42
2023-04-06T19:13:51.318Z,14.38
2023-04-06T19:15:52.924Z,14.35
2023-04-06T19:17:54.838Z,14.21
2023-04-06T19:19:56.430Z,14.17
2023-04-06T19:21:59.889Z,14.17
2023-04-06T19:24:01.580Z,14.17
2023-04-06T19:26:03.178Z,14.21
2023-04-06T19:28:04.783Z,14.12
2023-04-06T19:30:07.662Z,14.08
2023-04-06T19:32:09.335Z,14.03
2023-04-06T19:34:10.955Z,14.00
2023-04-06T19:36:13.197Z,13.98
2023-04-06T19:38:16.289Z,13.91
2023-04-06T19:40:17.852Z,13.78
2023-04-06T19:42:19.457Z,13.69
2023-04-06T19:44:21.104Z,13.67
2023-04-06T19:46:22.806Z,13.65
2023-04-06T19:48:24.524Z,13.57
2023-04-06T19:50:26.201Z,13.53
2023-04-06T19:52:28.937Z,13.43
2023-04-06T19:54:32.618Z,13.44
2023-04-06T19:56:34.244Z,13.41
2023-04-06T19:58:36.556Z,13.34
2023-04-06T20:00:38.172Z,13.34
2023-04-06T20:02:39.849Z,13.34
2023-04-06T20:04:41.527Z,13.34
2023-04-06T20:06:43.248Z,13.35
2023-04-06T20:08:45.052Z,13.33
2023-04-06T20:10:47.988Z,13.34
2023-04-06T20:12:49.533Z,13.32
2023-04-06T20:14:51.302Z,13.37
2023-04-06T20:16:52.972Z,13.36
2023-04-06T20:18:54.741Z,13.33
2023-04-06T20:20:56.368Z,13.27
2023-04-06T20:22:57.980Z,13.21
2023-04-06T20:24:59.599Z,13.16
2023-04-06T20:27:02.532Z,13.19
2023-04-06T20:29:04.151Z,13.23
2023-04-06T20:31:06.668Z,13.12
2023-04-06T20:33:08.365Z,13.06
2023-04-06T20:35:10.329Z,13.15
2023-04-06T20:37:11.895Z,13.26
2023-04-06T20:39:13.525Z,13.24
2023-04-06T20:41:15.498Z,13.08
2023-04-06T20:43:18.535Z,13.01
2023-04-06T20:45:20.093Z,12.94
2023-04-06T20:47:21.662Z,12.89
2023-04-06T20:49:23.342Z,12.91
2023-04-06T20:51:24.885Z,12.87
2023-04-06T20:53:26.456Z,12.79
2023-04-06T20:55:28.120Z,12.76
2023-04-06T20:57:29.689Z,12.81
2023-04-06T20:59:32.558Z,12.81
2023-04-06T21:01:34.229Z,12.83
2023-04-06T21:03:35.967Z,12.86
2023-04-06T21:05:37.760Z,12.86
2023-04-06T21:07:39.433Z,12.87
2023-04-06T21:09:41.368Z,12.82
2023-04-06T21:11:42.939Z,12.95
2023-04-06T21:13:44.484Z,12.78
2023-04-06T21:15:47.566Z,12.76
2023-04-06T21:17:49.303Z,12.75
2023-04-06T21:19:50.888Z,12.72
2023-04-06T21:21:52.479Z,12.76
2023-04-06T21:23:54.039Z,12.73
2023-04-06T21:25:55.605Z,12.67
2023-04-06T21:27:57.160Z,12.63
2023-04-06T21:29:58.672Z,12.62
2023-04-06T21:32:01.492Z,12.68
2023-04-06T21:34:03.096Z,12.68
2023-04-06T21:36:05.978Z,12.72
2023-04-06T21:38:07.706Z,12.75
2023-04-06T21:40:10.215Z,12.69
2023-04-06T21:42:11.812Z,12.61
2023-04-06T21:44:13.387Z,12.57
2023-04-06T21:46:14.965Z,12.56
2023-04-06T21:48:18.056Z,12.52
2023-04-06T21:50:19.707Z,12.48
2023-04-06T21:52:21.225Z,12.51
2023-04-06T21:54:22.814Z,12.54
2023-04-06T21:56:25.491Z,12.54
2023-04-06T21:58:27.070Z,12.51
2023-04-06T22:00:28.783Z,12.50
2023-04-06T22:02:30.486Z,12.41
2023-04-06T22:04:33.659Z,12.27
2023-04-06T22:06:36.653Z,12.27
2023-04-06T22:08:38.241Z,12.22
2023-04-06T22:10:39.785Z,12.16
2023-04-06T22:12:41.404Z,12.10
2023-04-06T22:14:43.017Z,12.09
2023-04-06T22:16:44.619Z,12.13
2023-04-06T22:18:46.230Z,12.14
2023-04-06T22:20:49.617Z,12.12
2023-04-06T22:22:51.313Z,12.07
2023-04-06T22:24:52.937Z,12.03
2023-04-06T22:26:54.506Z,12.11
2023-04-06T22:28:56.513Z,12.11
2023-04-06T22:30:58.063Z,12.15
2023-04-06T22:32:59.704Z,12.17
2023-04-06T22:35:01.313Z,12.10
2023-04-06T22:37:04.215Z,12.00
2023-04-06T22:39:05.871Z,12.05
2023-04-06T22:41:08.730Z,12.01
2023-04-06T22:43:10.445Z,12.05
2023-04-06T22:45:12.025Z,12.01
2023-04-06T22:47:13.676Z,12.00
2023-04-06T22:49:15.307Z,11.92
2023-04-06T22:51:16.957Z,11.91
2023-04-06T22:53:19.987Z,11.91
2023-04-06T22:55:21.690Z,11.93
2023-04-06T22:57:23.256Z,11.83
2023-04-06T22:59:24.893Z,11.79
2023-04-06T23:01:26.551Z,11.85
2023-04-06T23:03:28.321Z,11.79
2023-04-06T23:05:30.056Z,11.74
2023-04-06T23:07:31.695Z,11.75
2023-04-06T23:09:34.646Z,11.74
2023-04-06T23:11:36.141Z,11.79
2023-04-06T23:13:37.720Z,11.76
2023-04-06T23:15:39.286Z,11.75
2023-04-06T23:17:40.856Z,11.65
2023-04-06T23:19:42.428Z,11.69
2023-04-06T23:21:43.940Z,11.75
2023-04-06T23:23:45.521Z,11.71
2023-04-06T23:25:48.427Z,11.76
2023-04-06T23:27:50.065Z,11.77
2023-04-06T23:29:51.605Z,11.76
2023-04-06T23:31:53.317Z,11.68
2023-04-06T23:33:54.995Z,11.58
2023-04-06T23:35:56.563Z,11.55
2023-04-06T23:37:58.080Z,11.43
2023-04-06T23:39:59.614Z,11.47
2023-04-06T23:42:02.537Z,11.46
2023-04-06T23:44:04.043Z,11.43
2023-04-06T23:46:05.794Z,11.40
2023-04-06T23:48:07.888Z,11.44
2023-04-06T23:50:11.857Z,11.41
2023-04-06T23:52:13.483Z,11.44
2023-04-06T23:54:15.095Z,11.45
2023-04-06T23:56:16.663Z,11.47
2023-04-06T23:58:19.583Z,11.52
